Kihei, HI (96753)

7:50 PM HST on August 02, 2015 (GMT -1000)
Kihei | | Change Station
CLOSE
Current Station
Personal Weather Station
Location: Kihei, HI
Elevation: 23 ft
Nearby Weather Stations

Elev 23 ft 20.74 °N, 156.46 °W | Updated 3 minutes ago

Scattered Clouds
Scattered Clouds
79.9 °F
Feels Like 83 °F
N
2.0
Wind Variable Wind from NNW
Gusts 4.0 mph

Today
High -- | Low -- °F
--% Chance of Precip.
Yesterday
High -- | Low -- °F
Precip. -- in
6:00 AM 7:03 PM
Waning Gibbous, 89% visible
Pressure 29.91 in
Visibility 10.0 miles
Clouds Few 3700 ft
Scattered Clouds 4500 ft
Heat Index 83 °F
Dew Point 70 °F
Humidity 71%
Rainfall 0.00 in
Snow Depth Not available.
UV 0 out of 12
Pollen Not available.
Air Quality Not available.
Flu Activity Not available.
METAR PHOG 030454Z 04013KT 10SM FEW037 SCT045 27/20 A2989 RMK AO2 SLP127 T02720200

More Conditions Fewer Conditions

Pressure 29.91 in
Visibility 10.0 miles
Clouds Few 3700 ft
Scattered Clouds 4500 ft
Heat Index 83 °F
Dew Point 70 °F
Humidity 71%
Rainfall 0.00 in
Snow Depth Not available.
UV 0 out of 12
Pollen Not available.
Air Quality Not available.
Flu Activity Not available.
METAR PHOG 030454Z 04013KT 10SM FEW037 SCT045 27/20 A2989 RMK AO2 SLP127 T02720200

More Conditions Fewer Conditions

10-Day Weather Forecast

×

Almanac

Astronomy

Aug. 02, 2015 Rise Set
Actual Time
Civil Twilight
Nautical Twilight
Astronomical Twilight
Moon
Length of Visible Light
Length of Day
Tomorrow will be .
, % of the Moon is Illuminated

Today's Extremes

State Highs State Lows

Community

WunderPhotos

Upload Photos

1,843,588 photos uploaded!

WunderBlogs® & News

Nearby

Air Quality

  Air Quality AQ Index Pollutant
Not available.

Snow Depth

Station Depth Elevation

Earthquake Activity

City Distance Mag. Time & Date
Minimum magnitude displayed is 2.5.

Coastal Water Temperatures

Place Temperature

Stations

Nearby Weather Stations

Station Location Temp. Windchill Dew Point Humidity Wind Precip. Elev Updated Type